Weather at Lachute Airport

Public forecast

Using degrees Celsius for public forecast. Weather courtesy of forecast.io.

Closest aviation weather report (METAR) to Lachute Airport

Closest report is Montreal International (Mirabel) Airport, 14.1 nm (26.2 km) E. Retrieved 2021/03/08 17:00 UTC (8 minutes ago):

CYMX 081700Z 20005KT 180V250 25SM FEW250 M05/M16 A3040 RMK CI2 SLP301

Closest aviation forecast (TAF) to Lachute Airport

Forecast is more than 6 hours old.

Closest forecast is Montreal International (Mirabel) Airport, 14.1 nm (26.2 km) E. Retrieved 2021/03/08 06:42 UTC (10 hours ago):

TAF CYMX 080538Z 0806/0906 25005KT P6SM FEW240 FM082100 21006KT P6SM BKN220 FM090000 VRB03KT P6SM OVC050 RMK NXT FCST BY 081200Z